Time;durP1;ratioP1;P1;durP2;ratioP2;P2;SDS_P1;SDS_P2;PMS_P1;PMS_P2;Temp;Humidity;BMP_temperature;BMP_pressure;BME280_temperature;BME280_humidity;BME280_pressure;Samples;Min_cycle;Max_cycle;Signal;HPM_P1;HPM_P2
2023/01/14 00:02:17;;;;;;;12.20;2.53;;;;;;;1.35;58.57;95510.16;4965413;28;20133;-66
2023/01/14 00:04:43;;;;;;;8.30;2.30;;;;;;;1.20;60.00;95524.47;4980961;28;20659;-66
2023/01/14 00:07:08;;;;;;;6.95;1.92;;;;;;;1.60;59.69;95521.31;4979871;28;20091;-66
2023/01/14 00:09:33;;;;;;;7.75;2.38;;;;;;;1.44;58.97;95523.47;4979897;28;20119;-66
2023/01/14 00:11:59;;;;;;;5.88;1.92;;;;;;;1.61;58.47;95528.22;4983506;28;20546;-66
2023/01/14 00:14:29;;;;;;;9.05;2.40;;;;;;;1.33;59.74;95529.59;4980475;28;20087;-66
2023/01/14 00:16:54;;;;;;;12.52;2.70;;;;;;;0.93;60.32;95528.31;4979866;28;20449;-66
2023/01/14 00:19:20;;;;;;;11.15;2.40;;;;;;;1.45;58.92;95528.59;4979693;28;20087;-66
2023/01/14 00:21:45;;;;;;;5.25;2.22;;;;;;;1.26;59.08;95538.91;4979842;28;20084;-66
2023/01/14 00:24:12;;;;;;;14.68;2.88;;;;;;;1.20;59.49;95524.47;4980993;28;20078;-66
2023/01/14 00:26:38;;;;;;;7.43;2.30;;;;;;;0.21;62.64;95531.09;4979408;28;20209;-66
2023/01/14 00:29:03;;;;;;;9.25;2.05;;;;;;;0.65;61.09;95533.09;4980373;28;20579;-66
2023/01/14 00:31:29;;;;;;;12.48;2.08;;;;;;;-0.02;63.85;95523.19;4979098;28;20175;-66
2023/01/14 00:33:54;;;;;;;8.80;2.63;;;;;;;-0.11;63.47;95527.31;4980603;28;20101;-66
2023/01/14 00:36:21;;;;;;;6.28;1.73;;;;;;;0.13;62.95;95518.56;4977604;28;20450;-66
2023/01/14 00:38:47;;;;;;;10.75;2.42;;;;;;;0.24;62.83;95509.09;4979183;28;20385;-66
2023/01/14 00:41:17;;;;;;;12.40;2.40;;;;;;;-0.09;63.45;95512.34;4980414;28;20140;-66
2023/01/14 00:43:44;;;;;;;12.43;2.40;;;;;;;-0.24;64.43;95509.06;4978313;28;20115;-66
2023/01/14 00:46:11;;;;;;;3.90;1.42;;;;;;;-0.06;63.71;95492.94;4980230;28;20707;-66
2023/01/14 00:48:37;;;;;;;9.25;2.30;;;;;;;-0.11;64.22;95492.44;4979902;28;20590;-66
2023/01/14 00:51:02;;;;;;;7.38;1.88;;;;;;;-0.07;64.12;95491.25;4981993;28;20102;-66
2023/01/14 00:53:28;;;;;;;8.38;2.10;;;;;;;-0.23;64.27;95484.53;4984179;28;20113;-66
2023/01/14 00:55:53;;;;;;;11.20;2.25;;;;;;;-0.23;64.61;95488.97;4983820;28;20134;-66
2023/01/14 00:58:19;;;;;;;9.40;2.55;;;;;;;-0.20;64.67;95497.41;4983648;28;20111;-66
2023/01/14 01:00:44;;;;;;;5.90;1.98;;;;;;;0.30;63.12;95491.13;4968135;28;20525;-66
2023/01/14 01:03:10;;;;;;;9.25;2.10;;;;;;;0.36;62.64;95494.22;4980682;28;20465;-66
2023/01/14 01:05:36;;;;;;;12.30;2.42;;;;;;;0.04;63.73;95496.53;4982166;28;20161;-66
2023/01/14 01:08:03;;;;;;;7.28;2.08;;;;;;;0.21;62.75;95497.88;4982602;28;20064;-66
2023/01/14 01:10:28;;;;;;;18.58;6.78;;;;;;;0.03;63.17;95501.88;4983492;28;20533;-66
2023/01/14 01:12:54;;;;;;;14.77;3.05;;;;;;;0.28;63.05;95505.28;4982976;28;20350;-66
2023/01/14 01:15:19;;;;;;;9.75;2.83;;;;;;;0.71;61.91;95498.53;4983647;28;20110;-66
2023/01/14 01:17:45;;;;;;;15.68;3.35;;;;;;;0.24;62.72;95509.09;4982993;28;20085;-66
2023/01/14 01:20:10;;;;;;;15.57;3.35;;;;;;;0.06;62.70;95509.50;4983686;28;20458;-66
2023/01/14 01:22:36;;;;;;;8.43;2.53;;;;;;;0.27;63.36;95514.91;4981533;28;20101;-66
2023/01/14 01:25:01;;;;;;;14.55;2.85;;;;;;;-0.05;64.58;95512.94;4983052;28;20081;-66
2023/01/14 01:27:27;;;;;;;8.57;2.40;;;;;;;0.39;62.72;95520.19;4982864;28;20308;-66
2023/01/14 01:29:53;;;;;;;9.65;2.50;;;;;;;0.47;62.84;95528.28;4972521;28;20115;-66
2023/01/14 01:32:19;;;;;;;7.60;2.20;;;;;;;0.84;61.45;95530.72;4982695;28;20077;-66
2023/01/14 01:34:44;;;;;;;13.95;2.95;;;;;;;-0.05;63.59;95549.56;4983102;28;20159;-66
2023/01/14 01:37:10;;;;;;;7.10;1.90;;;;;;;0.41;63.39;95534.81;4983500;28;20071;-66
2023/01/14 01:39:35;;;;;;;14.70;2.70;;;;;;;0.54;62.21;95550.44;4982250;28;20116;-66
2023/01/14 01:42:01;;;;;;;12.88;3.17;;;;;;;0.08;64.35;95534.63;4982173;28;20109;-66
2023/01/14 01:44:26;;;;;;;10.25;2.20;;;;;;;0.63;62.07;95541.06;4983377;28;20078;-66
2023/01/14 01:46:51;;;;;;;15.93;2.77;;;;;;;0.95;61.26;95540.34;4982794;28;20527;-66
2023/01/14 01:49:19;;;;;;;10.63;4.55;;;;;;;1.11;61.36;95544.41;4980227;28;20355;-66
2023/01/14 01:51:52;;;;;;;12.52;2.78;;;;;;;1.26;60.31;95544.97;4968797;28;20119;-66
2023/01/14 01:54:18;;;;;;;13.27;3.63;;;;;;;1.83;59.40;95539.63;4964090;28;20163;-66
2023/01/14 01:56:46;;;;;;;9.27;2.00;;;;;;;1.47;59.79;95542.41;4974030;28;20075;-66
2023/01/14 01:59:11;;;;;;;14.65;2.90;;;;;;;1.48;59.77;95538.03;4973502;28;20127;-66
2023/01/14 02:01:38;;;;;;;16.92;2.95;;;;;;;1.73;59.18;95541.31;4953125;28;20817;-67
2023/01/14 02:04:03;;;;;;;15.18;3.42;;;;;;;1.92;58.07;95534.56;4967522;28;20084;-67
2023/01/14 02:06:28;;;;;;;13.20;3.05;;;;;;;1.44;59.11;95552.34;4982664;28;20094;-67
2023/01/14 02:08:54;;;;;;;16.40;3.50;;;;;;;1.00;61.35;95554.88;4981847;28;20083;-67
2023/01/14 02:11:56;;;;;;;17.00;3.08;;;;;;;0.97;61.56;95542.84;4944924;28;20105;-67
2023/01/14 02:14:57;;;;;;;18.13;2.63;;;;;;;1.29;60.09;95547.34;4968219;28;20159;-67
2023/01/14 02:17:47;;;;;;;13.82;3.03;;;;;;;1.35;60.90;95548.66;4970827;28;20069;-67
2023/01/14 02:20:26;;;;;;;12.43;3.28;;;;;;;0.65;62.46;95547.00;4969171;28;20440;-67
2023/01/14 02:23:29;;;;;;;20.03;3.43;;;;;;;0.61;62.74;95544.75;4965773;28;20114;-67
2023/01/14 02:26:08;;;;;;;12.32;3.00;;;;;;;0.79;62.22;95542.50;4982027;28;20452;-67
2023/01/14 02:28:44;;;;;;;9.27;2.25;;;;;;;0.79;62.52;95538.06;4968802;28;20091;-67
2023/01/14 02:31:14;;;;;;;20.38;3.75;;;;;;;-0.25;64.85;95545.78;4981409;28;20116;-66
2023/01/14 02:33:42;;;;;;;16.17;3.15;;;;;;;0.03;64.31;95542.00;4949858;28;20063;-67
2023/01/14 02:36:34;;;;;;;22.42;3.90;;;;;;;0.33;64.11;95545.91;4982151;28;20144;-67
2023/01/14 02:39:12;;;;;;;17.60;3.50;;;;;;;0.11;64.51;95530.97;4980904;28;20147;-67
2023/01/14 02:44:40;;;;;;;13.70;2.80;;;;;;;0.08;65.02;95539.03;4972703;28;20445;-67
2023/01/14 02:47:08;;;;;;;17.05;3.33;;;;;;;0.01;64.68;95537.81;4981151;28;20213;-67
2023/01/14 02:49:35;;;;;;;11.43;2.65;;;;;;;0.00;65.83;95534.34;4957369;28;20124;-67
2023/01/14 02:52:01;;;;;;;17.90;2.95;;;;;;;-0.20;65.25;95536.66;4970268;28;20291;-67
2023/01/14 02:54:28;;;;;;;14.38;3.00;;;;;;;0.34;64.22;95536.22;4949415;28;20150;-67
2023/01/14 02:56:53;;;;;;;13.07;3.10;;;;;;;-0.24;66.28;95540.44;4982400;28;20075;-67
2023/01/14 02:59:35;;;;;;;15.15;3.58;;;;;;;0.42;64.43;95523.41;4981714;28;20433;-67
2023/01/14 03:02:03;;;;;;;12.13;2.67;;;;;;;0.63;63.34;95529.72;4965922;28;20798;-67
2023/01/14 03:04:41;;;;;;;14.23;3.10;;;;;;;0.75;62.32;95533.22;4980627;28;20541;-67
2023/01/14 03:07:37;;;;;;;13.65;2.75;;;;;;;0.71;62.89;95529.97;4978608;28;20094;-67
2023/01/14 03:10:25;;;;;;;17.20;3.20;;;;;;;0.94;61.34;95540.47;4976607;28;20628;-67
2023/01/14 03:13:10;;;;;;;7.03;2.03;;;;;;;0.72;62.26;95536.91;4980516;28;20070;-67
2023/01/14 03:15:39;;;;;;;13.57;3.15;;;;;;;0.45;63.08;95527.59;4967084;28;20094;-67
2023/01/14 03:18:27;;;;;;;7.15;2.25;;;;;;;0.80;60.45;95510.94;4980770;28;20627;-67
2023/01/14 03:20:59;;;;;;;11.70;2.40;;;;;;;1.02;60.64;95527.59;4981183;28;20090;-67
2023/01/14 03:23:24;;;;;;;19.58;3.22;;;;;;;-0.23;63.66;95510.72;4981675;28;20096;-67
2023/01/14 03:25:50;;;;;;;14.13;2.97;;;;;;;0.93;61.21;95504.72;4952110;28;20270;-67
2023/01/14 03:28:17;;;;;;;17.23;3.17;;;;;;;-0.05;64.28;95502.47;4950955;28;20080;-67
2023/01/14 03:30:45;;;;;;;15.02;3.10;;;;;;;0.42;62.44;95494.59;4964031;28;20109;-67
2023/01/14 03:33:16;;;;;;;16.42;5.68;;;;;;;0.61;62.10;95487.09;4963386;28;20076;-67
2023/01/14 03:35:42;;;;;;;9.27;2.47;;;;;;;0.64;61.82;95484.22;4967368;28;20145;-67
2023/01/14 03:38:17;;;;;;;16.35;2.95;;;;;;;1.06;59.93;95486.25;4970905;28;20099;-67
2023/01/14 03:40:43;;;;;;;20.60;3.47;;;;;;;0.30;62.70;95482.41;4981950;28;20206;-67
2023/01/14 03:43:29;;;;;;;12.57;3.08;;;;;;;1.04;60.88;95478.50;4964128;28;20140;-67
2023/01/14 03:45:54;;;;;;;14.63;2.63;;;;;;;0.79;60.75;95482.22;4967987;28;20104;-67
2023/01/14 03:48:20;;;;;;;14.93;3.13;;;;;;;0.39;62.65;95473.03;4981830;28;20581;-67
2023/01/14 03:51:30;;;;;;;15.80;3.95;;;;;;;1.26;60.03;95478.56;4981614;28;20177;-67
2023/01/14 03:54:23;;;;;;;12.45;2.50;;;;;;;1.88;56.75;95470.97;4959080;28;20103;-67
2023/01/14 03:57:06;;;;;;;18.75;3.40;;;;;;;0.99;59.81;95464.94;4969332;28;20470;-67
2023/01/14 03:59:53;;;;;;;15.80;5.38;;;;;;;1.34;60.79;95463.91;4980313;28;20132;-67
2023/01/14 04:02:18;;;;;;;15.68;3.35;;;;;;;1.49;58.40;95459.19;4978895;28;20133;-67
2023/01/14 04:04:44;;;;;;;15.98;3.53;;;;;;;0.96;60.72;95465.16;4965059;28;20156;-67
2023/01/14 04:07:09;;;;;;;18.77;3.90;;;;;;;0.41;61.09;95477.19;4969769;28;20090;-67
2023/01/14 04:09:35;;;;;;;21.33;4.00;;;;;;;0.51;62.24;95469.47;4963814;28;20428;-67
2023/01/14 04:12:00;;;;;;;13.20;2.88;;;;;;;1.16;60.11;95463.56;4980064;28;20621;-67
2023/01/14 04:17:09;;;;;;;9.52;2.70;;;;;;;0.73;61.32;95458.13;4980067;28;20136;-67
2023/01/14 04:19:35;;;;;;;12.60;2.70;;;;;;;1.38;59.73;95453.97;4980489;28;20889;-67
2023/01/14 04:22:00;;;;;;;15.25;2.90;;;;;;;1.24;59.98;95448.06;4979856;28;20457;-67
2023/01/14 04:24:25;;;;;;;13.73;2.72;;;;;;;1.04;59.92;95460.13;4981983;28;20070;-67
2023/01/14 04:26:51;;;;;;;14.75;2.92;;;;;;;1.08;60.42;95453.69;4983616;28;20085;-67
2023/01/14 04:29:16;;;;;;;17.58;4.07;;;;;;;1.45;59.57;95449.06;4983987;28;20087;-67
2023/01/14 04:31:42;;;;;;;11.18;2.53;;;;;;;0.97;58.87;95451.09;4983061;28;20460;-67
2023/01/14 04:34:08;;;;;;;19.50;3.70;;;;;;;1.10;59.59;95454.38;4983775;28;20098;-67
2023/01/14 04:36:34;;;;;;;11.95;3.22;;;;;;;1.36;58.89;95454.09;4984940;28;20082;-67
2023/01/14 04:39:00;;;;;;;7.45;2.78;;;;;;;0.97;59.63;95467.66;4982665;28;20639;-67
2023/01/14 04:44:09;;;;;;;12.30;3.10;;;;;;;0.56;60.15;95469.09;4983322;28;20576;-67
2023/01/14 04:46:34;;;;;;;13.48;3.13;;;;;;;0.37;61.22;95460.03;4984252;28;20311;-67
2023/01/14 04:48:59;;;;;;;11.23;2.85;;;;;;;0.32;60.83;95467.44;4983521;28;20100;-67
2023/01/14 04:51:25;;;;;;;19.73;3.63;;;;;;;0.28;60.40;95445.03;4985944;28;20432;-67
2023/01/14 04:53:50;;;;;;;13.20;2.83;;;;;;;0.98;59.51;95437.88;4983698;28;20100;-67
2023/01/14 04:56:16;;;;;;;11.80;2.95;;;;;;;0.92;58.94;95438.34;4984074;28;20614;-67
2023/01/14 04:58:41;;;;;;;12.02;3.08;;;;;;;1.36;58.21;95440.13;4980692;28;20106;-67
2023/01/14 05:01:06;;;;;;;12.60;3.47;;;;;;;1.57;56.46;95434.13;4984318;28;20069;-67
2023/01/14 05:03:32;;;;;;;15.00;4.25;;;;;;;1.63;57.37;95433.63;4983875;28;20096;-67
2023/01/14 05:05:57;;;;;;;10.63;3.13;;;;;;;1.34;58.12;95429.78;4983506;28;20096;-67
2023/01/14 05:08:23;;;;;;;16.20;3.55;;;;;;;0.25;60.98;95440.03;4983943;28;20086;-67
2023/01/14 05:10:51;;;;;;;12.23;3.60;;;;;;;1.03;59.45;95440.13;4983182;28;20111;-67
2023/01/14 05:13:16;;;;;;;15.13;3.45;;;;;;;1.21;58.30;95431.72;4972481;28;20463;-67
2023/01/14 05:15:42;;;;;;;17.10;2.92;;;;;;;0.91;59.53;95435.84;4983450;28;20132;-67
2023/01/14 05:18:09;;;;;;;22.05;3.58;;;;;;;1.19;57.04;95431.84;4973029;28;20095;-67
2023/01/14 05:20:34;;;;;;;17.17;3.63;;;;;;;0.23;59.50;95429.69;4982726;28;20480;-67
2023/01/14 05:23:01;;;;;;;17.05;3.30;;;;;;;1.59;56.84;95424.34;4983100;28;20102;-67
2023/01/14 05:25:27;;;;;;;18.85;3.30;;;;;;;1.19;57.11;95413.47;4983558;28;20531;-67
2023/01/14 05:27:53;;;;;;;20.20;3.65;;;;;;;0.23;59.56;95415.75;4982315;28;20156;-67
2023/01/14 05:30:18;;;;;;;18.35;3.95;;;;;;;0.43;61.43;95408.97;4981148;28;20564;-67
2023/01/14 05:32:44;;;;;;;14.50;2.85;;;;;;;1.59;56.93;95396.31;4982807;28;20634;-67
2023/01/14 05:35:09;;;;;;;18.15;3.72;;;;;;;1.29;57.55;95389.97;4983100;28;20122;-67
2023/01/14 05:37:34;;;;;;;18.50;3.80;;;;;;;1.76;56.30;95391.44;4982879;28;20092;-67
2023/01/14 05:40:00;;;;;;;15.63;5.95;;;;;;;1.66;58.20;95385.31;4982477;28;20599;-67
2023/01/14 05:47:54;;;;;;;12.10;4.22;;;;;;;1.75;57.91;95369.63;4982182;28;20112;-67
2023/01/14 05:50:19;;;;;;;9.15;2.67;;;;;;;1.28;58.56;95372.56;4971812;28;20489;-67
2023/01/14 05:52:45;;;;;;;15.43;2.92;;;;;;;1.62;55.77;95372.44;4983956;28;20089;-67
2023/01/14 05:55:10;;;;;;;13.70;5.20;;;;;;;2.16;58.72;95363.59;4982446;28;20095;-67
2023/01/14 05:57:36;;;;;;;14.00;3.05;;;;;;;2.19;54.58;95365.97;4982975;28;20073;-67
2023/01/14 06:00:01;;;;;;;7.45;2.33;;;;;;;2.18;56.79;95361.66;4981558;28;20073;-67
2023/01/14 06:07:57;;;;;;;15.02;3.42;;;;;;;1.44;57.44;95342.44;4981328;28;20138;-67
2023/01/14 06:10:25;;;;;;;16.80;5.15;;;;;;;1.90;59.40;95339.59;4980938;28;20109;-67
2023/01/14 06:12:57;;;;;;;11.23;3.08;;;;;;;2.38;55.33;95343.34;4982391;28;20536;-67
2023/01/14 06:15:32;;;;;;;15.98;3.88;;;;;;;2.12;57.41;95338.56;4981954;28;20124;-67
2023/01/14 06:18:09;;;;;;;11.73;2.80;;;;;;;0.89;59.57;95353.88;4981747;28;20168;-67
2023/01/14 06:20:37;;;;;;;13.40;3.22;;;;;;;1.59;57.88;95340.34;4982424;28;20421;-67
2023/01/14 06:23:03;;;;;;;15.82;3.38;;;;;;;1.22;56.76;95352.06;4981985;28;20410;-67
2023/01/14 06:25:30;;;;;;;19.63;3.67;;;;;;;-0.22;60.40;95344.94;4981834;28;20068;-67
2023/01/14 06:27:56;;;;;;;13.80;5.03;;;;;;;1.23;62.59;95333.59;4982426;28;20477;-67
2023/01/14 06:30:21;;;;;;;11.15;4.18;;;;;;;1.90;59.11;95331.72;4978220;28;20605;-67
2023/01/14 06:32:47;;;;;;;13.80;4.10;;;;;;;2.41;57.23;95332.59;4982244;28;20063;-67
2023/01/14 06:35:12;;;;;;;14.38;4.60;;;;;;;2.48;56.62;95331.09;4981858;28;20098;-67
2023/01/14 06:37:38;;;;;;;14.35;3.60;;;;;;;2.63;56.38;95336.78;4981998;28;20087;-67
2023/01/14 06:40:03;;;;;;;12.90;3.42;;;;;;;2.51;56.21;95340.50;4982043;28;20118;-67
2023/01/14 06:42:29;;;;;;;13.77;6.05;;;;;;;2.25;60.42;95330.47;4982047;28;20191;-67
2023/01/14 06:44:54;;;;;;;13.77;4.35;;;;;;;2.48;58.66;95322.34;4981986;28;20075;-67
2023/01/14 06:47:19;;;;;;;15.10;5.63;;;;;;;2.49;59.76;95321.41;4981202;28;20102;-67
2023/01/14 06:49:45;;;;;;;11.93;5.50;;;;;;;2.52;59.97;95315.91;4981270;28;20103;-67
2023/01/14 06:52:10;;;;;;;17.50;4.15;;;;;;;2.27;56.85;95323.28;4984145;28;20074;-67
2023/01/14 06:54:36;;;;;;;17.10;4.10;;;;;;;2.89;57.64;95317.88;4981512;28;20083;-67
2023/01/14 06:57:03;;;;;;;14.25;4.05;;;;;;;3.10;57.23;95308.19;4981883;28;20446;-67
2023/01/14 06:59:29;;;;;;;11.15;3.15;;;;;;;2.39;56.06;95303.00;4981977;28;20457;-67
2023/01/14 07:01:54;;;;;;;13.30;5.30;;;;;;;2.43;60.22;95303.53;4981071;28;20092;-67
2023/01/14 07:04:20;;;;;;;12.90;2.70;;;;;;;3.08;54.13;95289.94;4981998;28;20072;-67
2023/01/14 07:06:45;;;;;;;17.20;3.67;;;;;;;3.15;54.26;95291.03;4981700;28;20671;-67
2023/01/14 07:09:11;;;;;;;14.75;3.97;;;;;;;2.86;55.96;95281.31;4981613;28;20122;-67
2023/01/14 07:11:36;;;;;;;13.35;4.25;;;;;;;3.36;55.27;95281.28;4981273;28;20194;-67
2023/01/14 07:14:01;;;;;;;16.60;4.00;;;;;;;3.37;55.76;95272.44;4981978;28;20079;-67
2023/01/14 07:16:27;;;;;;;10.25;4.20;;;;;;;3.27;56.71;95272.47;4981737;28;20089;-67
2023/01/14 07:18:52;;;;;;;14.07;4.05;;;;;;;3.19;54.68;95262.63;4981400;28;20182;-67
2023/01/14 07:21:18;;;;;;;17.83;3.65;;;;;;;1.56;56.89;95260.09;4981563;28;20065;-67
2023/01/14 07:23:43;;;;;;;16.02;3.92;;;;;;;2.86;56.53;95256.84;4981135;28;20089;-67
2023/01/14 07:26:08;;;;;;;13.43;3.42;;;;;;;2.00;57.18;95256.41;4968117;28;20501;-67
2023/01/14 07:28:34;;;;;;;17.98;3.58;;;;;;;2.43;56.58;95253.63;4981401;28;20067;-67
2023/01/14 07:31:04;;;;;;;15.40;3.92;;;;;;;2.09;58.38;95246.91;4980283;28;20091;-67
2023/01/14 07:33:29;;;;;;;14.38;4.05;;;;;;;2.97;58.36;95240.09;4980905;28;20105;-67
2023/01/14 07:35:57;;;;;;;16.83;3.38;;;;;;;1.88;58.20;95243.38;4981352;28;20083;-67
2023/01/14 07:38:22;;;;;;;16.90;4.40;;;;;;;2.44;58.06;95236.88;4980780;28;20090;-67
2023/01/14 07:40:48;;;;;;;17.10;5.07;;;;;;;2.94;58.33;95235.09;4981209;28;20061;-67
2023/01/14 07:43:13;;;;;;;16.05;3.47;;;;;;;2.72;54.12;95231.81;4980856;28;20092;-67
2023/01/14 07:45:38;;;;;;;19.48;3.42;;;;;;;2.04;58.14;95233.34;4980729;28;20083;-67
2023/01/14 07:48:04;;;;;;;16.38;4.05;;;;;;;2.17;58.89;95214.72;4980938;28;20292;-67
2023/01/14 07:50:29;;;;;;;12.20;3.17;;;;;;;2.20;56.56;95224.94;4980742;28;20220;-67
2023/01/14 07:52:56;;;;;;;15.00;3.38;;;;;;;2.93;55.25;95218.50;4982508;28;20368;-67
2023/01/14 07:55:22;;;;;;;13.75;3.88;;;;;;;2.36;57.13;95211.28;4980493;28;20540;-67
2023/01/14 07:57:48;;;;;;;12.88;3.72;;;;;;;3.02;56.96;95214.19;4981037;28;20156;-67
2023/01/14 08:00:14;;;;;;;15.23;3.28;;;;;;;2.86;55.71;95209.50;4981188;28;20668;-67
2023/01/14 08:02:39;;;;;;;17.92;3.70;;;;;;;2.80;54.10;95210.91;4984743;28;20070;-67
2023/01/14 08:05:05;;;;;;;17.08;3.60;;;;;;;2.69;54.64;95208.41;4984899;28;20071;-67
2023/01/14 08:07:31;;;;;;;11.50;4.40;;;;;;;2.89;57.38;95207.44;4984795;28;20127;-67
2023/01/14 08:09:56;;;;;;;11.23;3.45;;;;;;;3.23;56.00;95207.94;4982303;28;20117;-67
2023/01/14 08:12:21;;;;;;;14.75;3.30;;;;;;;2.28;56.68;95196.19;4984471;28;20071;-67
2023/01/14 08:14:47;;;;;;;12.90;3.20;;;;;;;2.81;54.89;95199.41;4982667;28;20588;-67
2023/01/14 08:17:12;;;;;;;14.07;3.22;;;;;;;3.41;55.11;95193.06;4984126;28;20070;-67
2023/01/14 08:19:37;;;;;;;15.77;3.25;;;;;;;3.65;53.15;95190.94;4983422;28;20083;-67
2023/01/14 08:22:03;;;;;;;12.63;4.00;;;;;;;3.74;55.77;95184.78;4982878;28;20557;-67
2023/01/14 08:24:28;;;;;;;11.30;4.07;;;;;;;3.92;56.47;95182.19;4984421;28;20110;-67
2023/01/14 08:26:54;;;;;;;14.00;4.10;;;;;;;3.84;55.60;95183.94;4983847;28;20077;-67
2023/01/14 08:29:19;;;;;;;13.02;4.60;;;;;;;3.94;55.69;95167.09;4984333;28;20056;-67
2023/01/14 08:31:51;;;;;;;13.38;3.40;;;;;;;3.03;55.07;95171.16;4983971;28;20105;-67
2023/01/14 08:34:16;;;;;;;10.75;3.25;;;;;;;3.44;52.99;95163.00;4984351;28;20582;-67
2023/01/14 08:36:42;;;;;;;10.73;3.97;;;;;;;3.16;55.96;95163.78;4984774;28;20054;-67
2023/01/14 08:39:07;;;;;;;14.35;4.38;;;;;;;3.71;57.30;95144.75;4983562;28;20094;-67
2023/01/14 08:41:33;;;;;;;12.25;3.97;;;;;;;3.62;56.23;95128.03;4969112;28;20070;-67
2023/01/14 08:43:58;;;;;;;11.90;3.63;;;;;;;3.92;55.69;95124.25;4984188;28;20065;-67
2023/01/14 08:46:24;;;;;;;10.38;4.00;;;;;;;3.88;56.43;95115.00;4983958;28;20720;-67
2023/01/14 08:48:49;;;;;;;12.13;3.88;;;;;;;3.44;56.75;95118.28;4986427;28;20359;-67
2023/01/14 08:51:14;;;;;;;14.82;4.05;;;;;;;3.74;55.74;95123.41;4984386;28;20116;-67
2023/01/14 08:53:40;;;;;;;15.38;3.80;;;;;;;3.40;55.59;95127.41;4983599;28;20096;-67
2023/01/14 08:56:06;;;;;;;9.55;3.60;;;;;;;3.57;54.63;95125.03;4984688;28;20540;-67
2023/01/14 08:58:34;;;;;;;10.18;3.85;;;;;;;3.86;56.69;95119.59;4984051;28;20082;-67
2023/01/14 09:01:01;;;;;;;14.55;3.70;;;;;;;3.76;55.29;95119.66;4978894;28;20046;-67
2023/01/14 09:03:30;;;;;;;14.63;4.05;;;;;;;3.68;54.68;95116.94;4982192;28;20091;-67
2023/01/14 09:05:59;;;;;;;12.13;4.05;;;;;;;3.72;54.56;95107.75;4983395;28;20195;-67
2023/01/14 09:19:22;;;;;;;17.20;4.03;;;;;;;3.45;56.10;95069.94;4978546;28;20148;-67
2023/01/14 09:21:47;;;;;;;14.48;6.13;;;;;;;3.93;56.92;95057.44;4972060;28;20047;-67
2023/01/14 09:24:13;;;;;;;19.23;4.07;;;;;;;3.45;53.48;95058.56;4983880;28;20507;-67
2023/01/14 09:26:39;;;;;;;17.80;3.97;;;;;;;3.33;54.00;95068.47;4980881;28;20478;-67
2023/01/14 09:29:04;;;;;;;10.55;3.33;;;;;;;3.81;54.36;95042.81;4980405;28;20070;-67
2023/01/14 09:31:30;;;;;;;16.25;4.85;;;;;;;3.90;55.48;95044.56;4982140;28;20085;-67
2023/01/14 09:33:55;;;;;;;5.82;2.35;;;;;;;3.72;53.77;95039.31;4983446;28;20103;-67
2023/01/14 09:36:20;;;;;;;16.00;4.80;;;;;;;3.84;55.47;95041.72;4982924;28;20561;-67
2023/01/14 09:38:46;;;;;;;16.48;4.72;;;;;;;4.01;55.29;95040.06;4983221;28;20103;-67
2023/01/14 09:41:22;;;;;;;13.98;3.47;;;;;;;1.75;58.44;95049.38;4983571;28;20066;-67
2023/01/14 09:43:48;;;;;;;12.18;4.80;;;;;;;3.24;57.68;95046.47;4960880;28;20555;-67
2023/01/14 09:46:13;;;;;;;16.88;3.72;;;;;;;3.81;54.83;95037.56;4982866;28;20138;-67
2023/01/14 09:48:38;;;;;;;18.27;4.75;;;;;;;3.72;54.98;95031.41;4972072;28;20344;-67
2023/01/14 09:51:25;;;;;;;12.07;3.72;;;;;;;3.53;55.37;95020.03;4982399;28;20086;-67
2023/01/14 09:54:02;;;;;;;9.30;4.82;;;;;;;3.58;55.24;95024.84;4981981;28;20066;-67
2023/01/14 09:56:46;;;;;;;10.23;2.95;;;;;;;1.84;59.24;95029.34;4961023;28;20056;-68
2023/01/14 09:59:21;;;;;;;11.95;3.95;;;;;;;3.25;57.80;95021.81;4982656;28;20567;-67
2023/01/14 10:02:24;;;;;;;10.65;3.50;;;;;;;3.63;56.04;95017.31;4968245;28;20364;-67
2023/01/14 10:05:28;;;;;;;11.52;3.33;;;;;;;1.99;59.15;95027.16;4968756;28;20293;-67
2023/01/14 10:07:54;;;;;;;13.15;4.47;;;;;;;3.42;57.00;95012.31;4948749;28;20099;-67
2023/01/14 10:10:36;;;;;;;8.55;4.20;;;;;;;3.01;59.26;95010.03;4950128;28;20399;-67
2023/01/14 10:13:06;;;;;;;12.35;3.60;;;;;;;2.82;57.46;95021.47;4973030;28;20488;-67
2023/01/14 10:15:53;;;;;;;11.55;3.65;;;;;;;2.29;59.95;95019.25;4981190;28;20093;-67
2023/01/14 10:18:28;;;;;;;11.75;4.57;;;;;;;2.14;61.67;95014.41;4960541;28;20096;-67
2023/01/14 10:20:58;;;;;;;16.17;3.92;;;;;;;1.06;63.53;95007.22;4981353;28;20061;-67
2023/01/14 10:23:37;;;;;;;8.15;3.15;;;;;;;2.33;61.15;94999.59;4980973;28;20097;-67
2023/01/14 10:26:19;;;;;;;13.95;5.00;;;;;;;1.14;63.98;94995.25;4981249;28;20104;-67
2023/01/14 10:28:48;;;;;;;12.32;4.68;;;;;;;2.47;61.50;94987.81;4981679;28;20347;-67
2023/01/14 10:31:21;;;;;;;12.35;4.80;;;;;;;3.05;60.14;94982.44;4977573;28;20124;-67
2023/01/14 10:33:46;;;;;;;9.30;3.58;;;;;;;1.89;63.30;94968.56;4971126;28;20560;-67
2023/01/14 10:36:14;;;;;;;11.63;4.95;;;;;;;2.81;61.65;94951.41;4953646;28;20074;-67
2023/01/14 10:38:42;;;;;;;7.78;3.65;;;;;;;3.31;59.33;94942.28;4967570;28;20162;-67
2023/01/14 10:41:07;;;;;;;10.95;4.45;;;;;;;2.82;59.80;94927.63;4980527;28;20139;-67
2023/01/14 10:43:37;;;;;;;12.38;6.55;;;;;;;3.45;58.22;94924.34;4967779;28;20169;-67
2023/01/14 10:46:03;;;;;;;9.48;3.20;;;;;;;2.24;60.90;94921.63;4981412;28;20161;-67
2023/01/14 10:48:37;;;;;;;7.00;2.80;;;;;;;2.15;59.46;94912.81;4980519;28;20191;-67
2023/01/14 10:51:37;;;;;;;10.00;4.40;;;;;;;2.91;61.22;94905.72;4976336;28;20091;-67
2023/01/14 10:54:14;;;;;;;7.05;2.60;;;;;;;2.51;61.14;94883.22;4978534;28;20087;-67
2023/01/14 10:56:54;;;;;;;8.40;4.03;;;;;;;3.20;59.38;94874.09;4980440;28;20537;-67
2023/01/14 10:59:34;;;;;;;5.53;2.47;;;;;;;3.36;57.13;94866.34;4966946;28;20088;-67
2023/01/14 11:01:59;;;;;;;7.90;3.00;;;;;;;3.38;57.55;94867.03;4977816;28;20107;-67
2023/01/14 11:04:31;;;;;;;10.60;5.50;;;;;;;2.34;60.63;94853.28;4982095;28;20505;-67
2023/01/14 11:06:57;;;;;;;4.78;1.88;;;;;;;3.44;58.29;94847.19;4963605;28;20496;-67
2023/01/14 11:09:28;;;;;;;8.63;4.15;;;;;;;3.51;58.29;94840.34;4980866;28;20051;-67
2023/01/14 11:11:54;;;;;;;6.20;3.80;;;;;;;3.73;58.75;94824.22;4979800;28;20118;-67
2023/01/14 11:14:31;;;;;;;6.90;3.42;;;;;;;2.72;60.67;94813.81;4962674;28;20111;-67
2023/01/14 11:16:58;;;;;;;6.28;3.08;;;;;;;3.80;57.65;94812.91;4965107;28;20073;-67
2023/01/14 11:19:24;;;;;;;6.60;2.60;;;;;;;3.35;58.09;94819.97;4980169;28;20455;-67
2023/01/14 11:21:58;;;;;;;4.53;2.70;;;;;;;2.98;59.76;94820.97;4979467;28;20104;-67
2023/01/14 11:24:40;;;;;;;3.28;2.00;;;;;;;3.33;58.12;94800.88;4978642;28;20519;-67
2023/01/14 11:27:13;;;;;;;4.93;2.20;;;;;;;3.04;59.16;94786.19;4963775;28;20359;-67
2023/01/14 11:29:43;;;;;;;4.13;2.10;;;;;;;3.53;57.51;94787.56;4970201;28;20070;-67
2023/01/14 11:32:10;;;;;;;2.45;1.80;;;;;;;3.60;58.16;94780.69;4967079;28;20077;-67
2023/01/14 11:34:56;;;;;;;7.55;3.67;;;;;;;3.78;58.33;94793.00;4960109;28;20078;-67
2023/01/14 11:37:24;;;;;;;5.43;2.50;;;;;;;0.83;64.47;94796.94;4971334;28;20773;-67
2023/01/14 11:39:53;;;;;;;4.55;2.78;;;;;;;0.29;70.04;94779.78;4972069;28;20112;-67
2023/01/14 11:42:37;;;;;;;7.47;2.90;;;;;;;0.81;69.56;94773.50;4979806;28;20459;-67
2023/01/14 11:45:08;;;;;;;10.13;3.72;;;;;;;1.70;66.70;94755.00;4966744;28;20065;-67
2023/01/14 11:47:53;;;;;;;6.15;2.47;;;;;;;2.56;61.64;94749.59;4963900;28;20654;-67
2023/01/14 11:50:46;;;;;;;7.40;4.57;;;;;;;3.09;61.33;94738.41;4979361;28;20119;-66
2023/01/14 11:53:16;;;;;;;6.55;2.30;;;;;;;3.17;60.57;94730.56;4968511;28;20076;-66
2023/01/14 11:55:44;;;;;;;5.82;3.33;;;;;;;2.08;66.44;94731.34;4981395;28;20081;-66
2023/01/14 11:58:19;;;;;;;8.20;3.83;;;;;;;3.11;61.26;94718.00;4965034;28;20168;-66
2023/01/14 12:01:06;;;;;;;7.88;2.70;;;;;;;2.77;61.18;94711.66;4980040;28;20539;-66
2023/01/14 12:03:35;;;;;;;5.35;2.97;;;;;;;3.83;58.99;94702.97;4964750;28;20080;-66
2023/01/14 12:06:04;;;;;;;6.05;2.90;;;;;;;3.09;61.31;94698.94;4964237;28;20541;-66
2023/01/14 12:08:30;;;;;;;6.40;3.35;;;;;;;3.24;60.21;94688.66;4952819;28;20452;-66
2023/01/14 12:10:59;;;;;;;5.43;2.42;;;;;;;2.92;60.69;94688.28;4978809;28;20154;-65
2023/01/14 12:19:14;;;;;;;4.20;2.50;;;;;;;2.15;65.39;94673.84;4951634;28;20165;-65
2023/01/14 12:22:04;;;;;;;6.25;2.60;;;;;;;2.96;62.29;94658.06;4970792;28;20084;-65